sensor_id;sensor_type;location;lat;lon;timestamp;P1;durP1;ratioP1;P2;durP2;ratioP2
16832;SDS011;8533;48.426;10.868;2024-03-02T00:02:24;26.43;;;11.87;;
16832;SDS011;8533;48.426;10.868;2024-03-02T00:04:50;24.97;;;12.77;;
16832;SDS011;8533;48.426;10.868;2024-03-02T00:07:15;25.77;;;11.67;;
16832;SDS011;8533;48.426;10.868;2024-03-02T00:09:41;23.67;;;11.93;;
16832;SDS011;8533;48.426;10.868;2024-03-02T00:12:06;21.23;;;12.17;;
16832;SDS011;8533;48.426;10.868;2024-03-02T00:14:32;22.70;;;11.93;;
16832;SDS011;8533;48.426;10.868;2024-03-02T00:16:57;22.03;;;10.63;;
16832;SDS011;8533;48.426;10.868;2024-03-02T00:19:24;25.13;;;12.17;;
16832;SDS011;8533;48.426;10.868;2024-03-02T00:21:50;22.73;;;12.07;;
16832;SDS011;8533;48.426;10.868;2024-03-02T00:24:20;19.37;;;11.20;;
16832;SDS011;8533;48.426;10.868;2024-03-02T00:26:47;20.10;;;10.90;;
16832;SDS011;8533;48.426;10.868;2024-03-02T00:29:13;20.37;;;11.17;;
16832;SDS011;8533;48.426;10.868;2024-03-02T00:31:44;19.80;;;10.63;;
16832;SDS011;8533;48.426;10.868;2024-03-02T00:34:09;17.33;;;10.60;;
16832;SDS011;8533;48.426;10.868;2024-03-02T00:36:38;17.33;;;10.17;;
16832;SDS011;8533;48.426;10.868;2024-03-02T00:39:04;21.43;;;11.67;;
16832;SDS011;8533;48.426;10.868;2024-03-02T00:41:32;18.90;;;11.17;;
16832;SDS011;8533;48.426;10.868;2024-03-02T00:43:59;18.70;;;10.23;;
16832;SDS011;8533;48.426;10.868;2024-03-02T00:46:27;18.13;;;10.77;;
16832;SDS011;8533;48.426;10.868;2024-03-02T00:48:56;22.50;;;11.67;;
16832;SDS011;8533;48.426;10.868;2024-03-02T00:51:24;20.27;;;10.97;;
16832;SDS011;8533;48.426;10.868;2024-03-02T00:53:52;18.00;;;10.80;;
16832;SDS011;8533;48.426;10.868;2024-03-02T00:56:21;19.07;;;10.53;;
16832;SDS011;8533;48.426;10.868;2024-03-02T00:58:47;22.03;;;11.37;;
16832;SDS011;8533;48.426;10.868;2024-03-02T01:01:13;20.80;;;11.43;;
16832;SDS011;8533;48.426;10.868;2024-03-02T01:03:38;19.77;;;10.90;;
16832;SDS011;8533;48.426;10.868;2024-03-02T01:06:04;23.97;;;11.93;;
16832;SDS011;8533;48.426;10.868;2024-03-02T01:08:30;21.20;;;11.80;;
16832;SDS011;8533;48.426;10.868;2024-03-02T01:10:55;21.70;;;11.37;;
16832;SDS011;8533;48.426;10.868;2024-03-02T01:13:21;21.17;;;11.17;;
16832;SDS011;8533;48.426;10.868;2024-03-02T01:15:48;22.47;;;11.77;;
16832;SDS011;8533;48.426;10.868;2024-03-02T01:18:13;19.73;;;10.77;;
16832;SDS011;8533;48.426;10.868;2024-03-02T01:20:38;21.43;;;10.90;;
16832;SDS011;8533;48.426;10.868;2024-03-02T01:23:03;18.03;;;10.37;;
16832;SDS011;8533;48.426;10.868;2024-03-02T01:25:29;20.57;;;11.03;;
16832;SDS011;8533;48.426;10.868;2024-03-02T01:27:54;19.33;;;11.00;;
16832;SDS011;8533;48.426;10.868;2024-03-02T01:30:19;19.87;;;10.87;;
16832;SDS011;8533;48.426;10.868;2024-03-02T01:32:45;19.53;;;10.73;;
16832;SDS011;8533;48.426;10.868;2024-03-02T01:35:10;19.70;;;10.63;;
16832;SDS011;8533;48.426;10.868;2024-03-02T01:37:35;19.13;;;10.30;;
16832;SDS011;8533;48.426;10.868;2024-03-02T01:40:01;17.57;;;10.37;;
16832;SDS011;8533;48.426;10.868;2024-03-02T01:42:27;16.90;;;10.53;;
16832;SDS011;8533;48.426;10.868;2024-03-02T01:44:53;17.87;;;9.87;;
16832;SDS011;8533;48.426;10.868;2024-03-02T01:47:18;19.13;;;9.97;;
16832;SDS011;8533;48.426;10.868;2024-03-02T01:49:43;19.20;;;10.47;;
16832;SDS011;8533;48.426;10.868;2024-03-02T01:52:09;19.10;;;10.27;;
16832;SDS011;8533;48.426;10.868;2024-03-02T01:54:34;18.17;;;10.10;;
16832;SDS011;8533;48.426;10.868;2024-03-02T01:56:59;18.17;;;9.73;;
16832;SDS011;8533;48.426;10.868;2024-03-02T01:59:25;15.43;;;9.40;;
16832;SDS011;8533;48.426;10.868;2024-03-02T02:01:50;17.97;;;9.97;;
16832;SDS011;8533;48.426;10.868;2024-03-02T02:04:16;19.37;;;10.10;;
16832;SDS011;8533;48.426;10.868;2024-03-02T02:06:41;17.13;;;10.03;;
16832;SDS011;8533;48.426;10.868;2024-03-02T02:09:09;18.00;;;9.90;;
16832;SDS011;8533;48.426;10.868;2024-03-02T02:11:34;18.33;;;10.57;;
16832;SDS011;8533;48.426;10.868;2024-03-02T02:13:59;18.03;;;9.97;;
16832;SDS011;8533;48.426;10.868;2024-03-02T02:16:25;20.80;;;10.83;;
16832;SDS011;8533;48.426;10.868;2024-03-02T02:18:50;18.53;;;9.97;;
16832;SDS011;8533;48.426;10.868;2024-03-02T02:21:15;19.47;;;10.23;;
16832;SDS011;8533;48.426;10.868;2024-03-02T02:23:41;20.57;;;9.97;;
16832;SDS011;8533;48.426;10.868;2024-03-02T02:26:11;19.30;;;10.03;;
16832;SDS011;8533;48.426;10.868;2024-03-02T02:28:36;17.50;;;9.87;;
16832;SDS011;8533;48.426;10.868;2024-03-02T02:31:01;21.80;;;10.40;;
16832;SDS011;8533;48.426;10.868;2024-03-02T02:33:27;21.87;;;10.47;;
16832;SDS011;8533;48.426;10.868;2024-03-02T02:35:53;18.13;;;10.33;;
16832;SDS011;8533;48.426;10.868;2024-03-02T02:38:18;17.20;;;9.50;;
16832;SDS011;8533;48.426;10.868;2024-03-02T02:40:45;16.80;;;9.33;;
16832;SDS011;8533;48.426;10.868;2024-03-02T02:43:10;20.50;;;9.83;;
16832;SDS011;8533;48.426;10.868;2024-03-02T02:45:35;17.87;;;8.87;;
16832;SDS011;8533;48.426;10.868;2024-03-02T02:48:00;20.57;;;10.47;;
16832;SDS011;8533;48.426;10.868;2024-03-02T02:50:27;20.20;;;11.07;;
16832;SDS011;8533;48.426;10.868;2024-03-02T02:52:53;17.87;;;9.37;;
16832;SDS011;8533;48.426;10.868;2024-03-02T02:55:18;17.80;;;9.50;;
16832;SDS011;8533;48.426;10.868;2024-03-02T02:57:44;16.27;;;9.67;;
16832;SDS011;8533;48.426;10.868;2024-03-02T03:00:11;18.37;;;10.50;;
16832;SDS011;8533;48.426;10.868;2024-03-02T03:02:41;17.50;;;9.50;;
16832;SDS011;8533;48.426;10.868;2024-03-02T03:05:07;17.63;;;10.03;;
16832;SDS011;8533;48.426;10.868;2024-03-02T03:07:34;19.73;;;9.40;;
16832;SDS011;8533;48.426;10.868;2024-03-02T03:09:59;19.50;;;10.67;;
16832;SDS011;8533;48.426;10.868;2024-03-02T03:12:25;19.67;;;10.30;;
16832;SDS011;8533;48.426;10.868;2024-03-02T03:14:50;19.90;;;10.17;;
16832;SDS011;8533;48.426;10.868;2024-03-02T03:17:16;16.13;;;9.60;;
16832;SDS011;8533;48.426;10.868;2024-03-02T03:19:42;17.50;;;9.47;;
16832;SDS011;8533;48.426;10.868;2024-03-02T03:22:07;16.30;;;8.77;;
16832;SDS011;8533;48.426;10.868;2024-03-02T03:24:33;18.63;;;9.57;;
16832;SDS011;8533;48.426;10.868;2024-03-02T03:26:58;17.97;;;9.17;;
16832;SDS011;8533;48.426;10.868;2024-03-02T03:29:23;16.97;;;9.60;;
16832;SDS011;8533;48.426;10.868;2024-03-02T03:31:49;16.97;;;9.50;;
16832;SDS011;8533;48.426;10.868;2024-03-02T03:34:14;17.90;;;8.93;;
16832;SDS011;8533;48.426;10.868;2024-03-02T03:36:41;15.57;;;9.07;;
16832;SDS011;8533;48.426;10.868;2024-03-02T03:39:06;18.27;;;9.97;;
16832;SDS011;8533;48.426;10.868;2024-03-02T03:41:31;14.60;;;8.73;;
16832;SDS011;8533;48.426;10.868;2024-03-02T03:43:57;18.80;;;10.13;;
16832;SDS011;8533;48.426;10.868;2024-03-02T03:46:22;18.30;;;9.47;;
16832;SDS011;8533;48.426;10.868;2024-03-02T03:48:47;16.80;;;9.37;;
16832;SDS011;8533;48.426;10.868;2024-03-02T03:51:12;15.70;;;9.63;;
16832;SDS011;8533;48.426;10.868;2024-03-02T03:53:38;16.23;;;9.23;;
16832;SDS011;8533;48.426;10.868;2024-03-02T03:56:03;16.13;;;8.57;;
16832;SDS011;8533;48.426;10.868;2024-03-02T03:58:29;16.77;;;9.37;;
16832;SDS011;8533;48.426;10.868;2024-03-02T04:00:54;19.43;;;10.30;;
16832;SDS011;8533;48.426;10.868;2024-03-02T04:03:19;17.10;;;9.23;;
16832;SDS011;8533;48.426;10.868;2024-03-02T04:05:44;16.00;;;9.07;;
16832;SDS011;8533;48.426;10.868;2024-03-02T04:08:10;18.20;;;9.50;;
16832;SDS011;8533;48.426;10.868;2024-03-02T04:10:36;15.30;;;9.20;;
16832;SDS011;8533;48.426;10.868;2024-03-02T04:13:01;16.37;;;8.97;;
16832;SDS011;8533;48.426;10.868;2024-03-02T04:15:27;17.60;;;8.90;;
16832;SDS011;8533;48.426;10.868;2024-03-02T04:17:52;16.50;;;9.53;;
16832;SDS011;8533;48.426;10.868;2024-03-02T04:20:17;18.40;;;9.40;;
16832;SDS011;8533;48.426;10.868;2024-03-02T04:22:42;19.47;;;9.47;;
16832;SDS011;8533;48.426;10.868;2024-03-02T04:25:08;16.83;;;8.90;;
16832;SDS011;8533;48.426;10.868;2024-03-02T04:27:34;15.37;;;9.43;;
16832;SDS011;8533;48.426;10.868;2024-03-02T04:30:00;15.33;;;8.73;;
16832;SDS011;8533;48.426;10.868;2024-03-02T04:32:26;15.87;;;9.07;;
16832;SDS011;8533;48.426;10.868;2024-03-02T04:34:52;17.77;;;10.00;;
16832;SDS011;8533;48.426;10.868;2024-03-02T04:37:18;18.87;;;10.30;;
16832;SDS011;8533;48.426;10.868;2024-03-02T04:39:43;15.90;;;9.37;;
16832;SDS011;8533;48.426;10.868;2024-03-02T04:42:09;17.20;;;9.33;;
16832;SDS011;8533;48.426;10.868;2024-03-02T04:44:34;17.10;;;9.63;;
16832;SDS011;8533;48.426;10.868;2024-03-02T04:46:59;18.77;;;9.10;;
16832;SDS011;8533;48.426;10.868;2024-03-02T04:49:25;13.47;;;8.93;;
16832;SDS011;8533;48.426;10.868;2024-03-02T04:51:50;21.40;;;10.87;;
16832;SDS011;8533;48.426;10.868;2024-03-02T04:54:16;17.83;;;8.93;;
16832;SDS011;8533;48.426;10.868;2024-03-02T04:56:41;18.27;;;9.53;;
16832;SDS011;8533;48.426;10.868;2024-03-02T04:59:09;18.93;;;11.10;;
16832;SDS011;8533;48.426;10.868;2024-03-02T05:01:35;19.23;;;10.73;;
16832;SDS011;8533;48.426;10.868;2024-03-02T05:04:00;18.13;;;10.77;;
16832;SDS011;8533;48.426;10.868;2024-03-02T05:06:25;19.73;;;10.50;;
16832;SDS011;8533;48.426;10.868;2024-03-02T05:08:51;17.33;;;10.50;;
16832;SDS011;8533;48.426;10.868;2024-03-02T05:11:16;19.13;;;10.80;;
16832;SDS011;8533;48.426;10.868;2024-03-02T05:14:00;20.83;;;10.03;;
16832;SDS011;8533;48.426;10.868;2024-03-02T05:16:25;18.80;;;10.23;;
16832;SDS011;8533;48.426;10.868;2024-03-02T05:18:50;18.37;;;10.60;;
16832;SDS011;8533;48.426;10.868;2024-03-02T05:21:15;18.43;;;10.97;;
16832;SDS011;8533;48.426;10.868;2024-03-02T05:23:41;20.23;;;10.80;;
16832;SDS011;8533;48.426;10.868;2024-03-02T05:26:06;20.63;;;10.97;;
16832;SDS011;8533;48.426;10.868;2024-03-02T05:28:31;22.53;;;11.23;;
16832;SDS011;8533;48.426;10.868;2024-03-02T05:30:56;18.63;;;10.63;;
16832;SDS011;8533;48.426;10.868;2024-03-02T05:33:22;18.60;;;10.20;;
16832;SDS011;8533;48.426;10.868;2024-03-02T05:35:47;19.13;;;9.80;;
16832;SDS011;8533;48.426;10.868;2024-03-02T05:38:15;18.87;;;10.13;;
16832;SDS011;8533;48.426;10.868;2024-03-02T05:40:41;17.13;;;9.63;;
16832;SDS011;8533;48.426;10.868;2024-03-02T05:43:06;16.33;;;10.20;;
16832;SDS011;8533;48.426;10.868;2024-03-02T05:45:31;18.10;;;10.77;;
16832;SDS011;8533;48.426;10.868;2024-03-02T05:47:57;20.30;;;11.37;;
16832;SDS011;8533;48.426;10.868;2024-03-02T05:50:22;18.43;;;10.67;;
16832;SDS011;8533;48.426;10.868;2024-03-02T05:52:47;20.87;;;10.93;;
16832;SDS011;8533;48.426;10.868;2024-03-02T05:55:12;19.47;;;9.80;;
16832;SDS011;8533;48.426;10.868;2024-03-02T05:57:38;17.43;;;10.47;;
16832;SDS011;8533;48.426;10.868;2024-03-02T06:00:06;18.87;;;10.40;;
16832;SDS011;8533;48.426;10.868;2024-03-02T06:02:33;20.73;;;11.37;;
16832;SDS011;8533;48.426;10.868;2024-03-02T06:05:00;20.47;;;10.47;;
16832;SDS011;8533;48.426;10.868;2024-03-02T06:07:25;21.40;;;12.33;;
16832;SDS011;8533;48.426;10.868;2024-03-02T06:09:50;24.17;;;11.87;;
16832;SDS011;8533;48.426;10.868;2024-03-02T06:12:17;21.03;;;11.17;;
16832;SDS011;8533;48.426;10.868;2024-03-02T06:14:43;22.00;;;12.73;;
16832;SDS011;8533;48.426;10.868;2024-03-02T06:17:08;23.93;;;12.23;;
16832;SDS011;8533;48.426;10.868;2024-03-02T06:19:33;21.97;;;11.97;;
16832;SDS011;8533;48.426;10.868;2024-03-02T06:21:59;26.67;;;12.97;;
16832;SDS011;8533;48.426;10.868;2024-03-02T06:24:24;22.23;;;11.77;;
16832;SDS011;8533;48.426;10.868;2024-03-02T06:26:51;24.87;;;12.63;;
16832;SDS011;8533;48.426;10.868;2024-03-02T06:29:17;25.03;;;12.70;;
16832;SDS011;8533;48.426;10.868;2024-03-02T06:31:42;21.17;;;12.50;;
16832;SDS011;8533;48.426;10.868;2024-03-02T06:34:07;23.13;;;12.87;;
16832;SDS011;8533;48.426;10.868;2024-03-02T06:36:33;23.90;;;12.97;;
16832;SDS011;8533;48.426;10.868;2024-03-02T06:38:59;25.87;;;13.43;;
16832;SDS011;8533;48.426;10.868;2024-03-02T06:41:24;25.63;;;13.83;;
16832;SDS011;8533;48.426;10.868;2024-03-02T06:43:51;26.37;;;13.67;;
16832;SDS011;8533;48.426;10.868;2024-03-02T06:46:24;22.97;;;12.80;;
16832;SDS011;8533;48.426;10.868;2024-03-02T06:48:49;23.17;;;12.13;;
16832;SDS011;8533;48.426;10.868;2024-03-02T06:51:15;23.80;;;13.67;;
16832;SDS011;8533;48.426;10.868;2024-03-02T06:53:40;22.73;;;13.27;;
16832;SDS011;8533;48.426;10.868;2024-03-02T06:56:06;24.20;;;13.10;;
16832;SDS011;8533;48.426;10.868;2024-03-02T06:58:32;29.10;;;13.97;;
16832;SDS011;8533;48.426;10.868;2024-03-02T07:00:57;26.67;;;13.20;;
16832;SDS011;8533;48.426;10.868;2024-03-02T07:03:23;25.30;;;13.00;;
16832;SDS011;8533;48.426;10.868;2024-03-02T07:05:48;23.83;;;12.53;;
16832;SDS011;8533;48.426;10.868;2024-03-02T07:08:13;23.03;;;12.30;;
16832;SDS011;8533;48.426;10.868;2024-03-02T07:10:39;24.60;;;13.23;;
16832;SDS011;8533;48.426;10.868;2024-03-02T07:13:04;21.13;;;12.40;;
16832;SDS011;8533;48.426;10.868;2024-03-02T07:15:30;23.70;;;13.07;;
16832;SDS011;8533;48.426;10.868;2024-03-02T07:18:10;22.10;;;13.03;;
16832;SDS011;8533;48.426;10.868;2024-03-02T07:20:35;21.23;;;11.77;;
16832;SDS011;8533;48.426;10.868;2024-03-02T07:23:00;24.17;;;12.03;;
16832;SDS011;8533;48.426;10.868;2024-03-02T07:25:26;23.13;;;12.87;;
16832;SDS011;8533;48.426;10.868;2024-03-02T07:27:51;22.47;;;13.10;;
16832;SDS011;8533;48.426;10.868;2024-03-02T07:30:16;22.43;;;12.70;;
16832;SDS011;8533;48.426;10.868;2024-03-02T07:32:42;23.03;;;11.63;;
16832;SDS011;8533;48.426;10.868;2024-03-02T07:35:10;16.40;;;10.27;;
16832;SDS011;8533;48.426;10.868;2024-03-02T07:37:39;19.17;;;10.57;;
16832;SDS011;8533;48.426;10.868;2024-03-02T07:40:05;19.60;;;10.47;;
16832;SDS011;8533;48.426;10.868;2024-03-02T07:42:37;16.87;;;10.03;;
16832;SDS011;8533;48.426;10.868;2024-03-02T07:45:04;19.07;;;11.00;;
16832;SDS011;8533;48.426;10.868;2024-03-02T07:47:30;16.93;;;9.80;;
16832;SDS011;8533;48.426;10.868;2024-03-02T07:49:55;18.43;;;9.97;;
16832;SDS011;8533;48.426;10.868;2024-03-02T07:52:20;16.67;;;9.97;;
16832;SDS011;8533;48.426;10.868;2024-03-02T07:54:46;16.70;;;9.53;;
16832;SDS011;8533;48.426;10.868;2024-03-02T07:57:11;15.30;;;8.60;;
16832;SDS011;8533;48.426;10.868;2024-03-02T07:59:36;16.17;;;9.63;;
16832;SDS011;8533;48.426;10.868;2024-03-02T08:02:02;15.70;;;9.57;;
16832;SDS011;8533;48.426;10.868;2024-03-02T08:04:28;17.23;;;9.50;;
16832;SDS011;8533;48.426;10.868;2024-03-02T08:06:53;14.70;;;9.80;;
16832;SDS011;8533;48.426;10.868;2024-03-02T08:09:19;12.70;;;8.40;;
16832;SDS011;8533;48.426;10.868;2024-03-02T08:11:45;15.20;;;9.57;;
16832;SDS011;8533;48.426;10.868;2024-03-02T08:14:10;15.17;;;9.63;;
16832;SDS011;8533;48.426;10.868;2024-03-02T08:16:35;13.40;;;8.77;;
16832;SDS011;8533;48.426;10.868;2024-03-02T08:19:01;13.73;;;8.80;;
16832;SDS011;8533;48.426;10.868;2024-03-02T08:21:26;14.23;;;8.53;;
16832;SDS011;8533;48.426;10.868;2024-03-02T08:23:55;13.70;;;8.47;;
16832;SDS011;8533;48.426;10.868;2024-03-02T08:26:20;12.20;;;7.67;;
16832;SDS011;8533;48.426;10.868;2024-03-02T08:28:46;11.93;;;7.67;;
16832;SDS011;8533;48.426;10.868;2024-03-02T08:31:11;11.30;;;7.33;;
16832;SDS011;8533;48.426;10.868;2024-03-02T08:33:36;12.17;;;7.30;;
16832;SDS011;8533;48.426;10.868;2024-03-02T08:36:02;12.80;;;7.43;;
16832;SDS011;8533;48.426;10.868;2024-03-02T08:38:28;12.27;;;7.67;;
16832;SDS011;8533;48.426;10.868;2024-03-02T08:40:54;14.10;;;8.10;;
16832;SDS011;8533;48.426;10.868;2024-03-02T08:43:19;12.80;;;8.27;;
16832;SDS011;8533;48.426;10.868;2024-03-02T08:45:45;11.07;;;7.10;;
16832;SDS011;8533;48.426;10.868;2024-03-02T08:48:10;13.23;;;7.73;;
16832;SDS011;8533;48.426;10.868;2024-03-02T08:50:36;10.47;;;7.30;;
16832;SDS011;8533;48.426;10.868;2024-03-02T08:53:02;10.87;;;7.27;;
16832;SDS011;8533;48.426;10.868;2024-03-02T08:55:28;10.27;;;6.33;;
16832;SDS011;8533;48.426;10.868;2024-03-02T08:57:54;11.80;;;6.93;;
16832;SDS011;8533;48.426;10.868;2024-03-02T09:00:20;11.10;;;6.80;;
16832;SDS011;8533;48.426;10.868;2024-03-02T09:02:45;9.10;;;6.23;;
16832;SDS011;8533;48.426;10.868;2024-03-02T09:05:11;8.03;;;5.97;;
16832;SDS011;8533;48.426;10.868;2024-03-02T09:07:37;9.20;;;6.17;;
16832;SDS011;8533;48.426;10.868;2024-03-02T09:10:03;8.03;;;5.37;;
16832;SDS011;8533;48.426;10.868;2024-03-02T09:12:29;9.17;;;5.60;;
16832;SDS011;8533;48.426;10.868;2024-03-02T09:14:55;9.67;;;5.33;;
16832;SDS011;8533;48.426;10.868;2024-03-02T09:17:20;6.20;;;4.47;;
16832;SDS011;8533;48.426;10.868;2024-03-02T09:19:46;8.80;;;5.10;;
16832;SDS011;8533;48.426;10.868;2024-03-02T09:22:12;7.13;;;5.17;;
16832;SDS011;8533;48.426;10.868;2024-03-02T09:24:38;5.97;;;4.13;;
16832;SDS011;8533;48.426;10.868;2024-03-02T09:27:03;5.90;;;4.40;;
16832;SDS011;8533;48.426;10.868;2024-03-02T09:29:29;8.00;;;4.60;;
16832;SDS011;8533;48.426;10.868;2024-03-02T09:31:54;5.17;;;4.00;;
16832;SDS011;8533;48.426;10.868;2024-03-02T09:34:20;5.53;;;4.10;;
16832;SDS011;8533;48.426;10.868;2024-03-02T09:36:45;5.30;;;3.63;;
16832;SDS011;8533;48.426;10.868;2024-03-02T09:39:11;4.73;;;3.60;;
16832;SDS011;8533;48.426;10.868;2024-03-02T09:41:36;4.57;;;3.30;;
16832;SDS011;8533;48.426;10.868;2024-03-02T09:44:03;5.27;;;3.60;;
16832;SDS011;8533;48.426;10.868;2024-03-02T09:46:29;6.50;;;4.33;;
16832;SDS011;8533;48.426;10.868;2024-03-02T09:48:54;6.63;;;4.03;;
16832;SDS011;8533;48.426;10.868;2024-03-02T09:51:20;5.73;;;3.80;;
16832;SDS011;8533;48.426;10.868;2024-03-02T09:53:45;4.93;;;3.50;;
16832;SDS011;8533;48.426;10.868;2024-03-02T09:56:12;5.33;;;3.50;;
16832;SDS011;8533;48.426;10.868;2024-03-02T09:58:38;4.47;;;3.30;;
16832;SDS011;8533;48.426;10.868;2024-03-02T10:01:05;4.03;;;3.00;;
16832;SDS011;8533;48.426;10.868;2024-03-02T10:03:31;4.80;;;3.57;;
16832;SDS011;8533;48.426;10.868;2024-03-02T10:06:18;5.40;;;3.83;;
16832;SDS011;8533;48.426;10.868;2024-03-02T10:08:44;5.60;;;3.53;;
16832;SDS011;8533;48.426;10.868;2024-03-02T10:11:09;6.30;;;4.20;;
16832;SDS011;8533;48.426;10.868;2024-03-02T10:13:35;5.67;;;3.90;;
16832;SDS011;8533;48.426;10.868;2024-03-02T10:16:06;5.03;;;3.77;;
16832;SDS011;8533;48.426;10.868;2024-03-02T10:18:37;4.47;;;3.90;;
16832;SDS011;8533;48.426;10.868;2024-03-02T10:21:14;5.97;;;4.27;;
16832;SDS011;8533;48.426;10.868;2024-03-02T10:23:40;6.30;;;3.60;;
16832;SDS011;8533;48.426;10.868;2024-03-02T10:26:17;5.30;;;3.97;;
16832;SDS011;8533;48.426;10.868;2024-03-02T10:28:46;5.20;;;3.70;;
16832;SDS011;8533;48.426;10.868;2024-03-02T10:31:12;6.30;;;3.87;;
16832;SDS011;8533;48.426;10.868;2024-03-02T10:33:38;4.53;;;3.50;;
16832;SDS011;8533;48.426;10.868;2024-03-02T10:36:03;4.63;;;3.47;;
16832;SDS011;8533;48.426;10.868;2024-03-02T10:38:29;4.70;;;3.83;;
16832;SDS011;8533;48.426;10.868;2024-03-02T10:40:55;5.60;;;4.10;;
16832;SDS011;8533;48.426;10.868;2024-03-02T10:43:24;3.90;;;3.30;;
16832;SDS011;8533;48.426;10.868;2024-03-02T10:45:51;7.47;;;3.87;;
16832;SDS011;8533;48.426;10.868;2024-03-02T10:48:17;7.53;;;3.90;;
16832;SDS011;8533;48.426;10.868;2024-03-02T10:50:43;5.87;;;4.10;;
16832;SDS011;8533;48.426;10.868;2024-03-02T10:53:08;5.83;;;4.00;;
16832;SDS011;8533;48.426;10.868;2024-03-02T10:55:34;5.70;;;4.17;;
16832;SDS011;8533;48.426;10.868;2024-03-02T10:57:59;6.50;;;4.03;;
16832;SDS011;8533;48.426;10.868;2024-03-02T11:00:31;5.70;;;3.70;;
16832;SDS011;8533;48.426;10.868;2024-03-02T11:03:04;5.30;;;3.57;;
16832;SDS011;8533;48.426;10.868;2024-03-02T11:05:36;5.70;;;3.93;;
16832;SDS011;8533;48.426;10.868;2024-03-02T11:08:08;6.00;;;3.90;;
16832;SDS011;8533;48.426;10.868;2024-03-02T11:10:38;7.10;;;4.07;;
16832;SDS011;8533;48.426;10.868;2024-03-02T11:13:13;5.70;;;3.80;;
16832;SDS011;8533;48.426;10.868;2024-03-02T11:15:43;4.80;;;3.43;;
16832;SDS011;8533;48.426;10.868;2024-03-02T11:18:09;5.57;;;3.50;;
16832;SDS011;8533;48.426;10.868;2024-03-02T11:20:39;5.03;;;3.43;;
16832;SDS011;8533;48.426;10.868;2024-03-02T11:23:06;5.83;;;3.43;;
16832;SDS011;8533;48.426;10.868;2024-03-02T11:25:32;5.73;;;3.30;;
16832;SDS011;8533;48.426;10.868;2024-03-02T11:28:04;5.60;;;3.90;;
16832;SDS011;8533;48.426;10.868;2024-03-02T11:33:03;5.30;;;3.60;;
16832;SDS011;8533;48.426;10.868;2024-03-02T11:35:33;6.33;;;3.83;;
16832;SDS011;8533;48.426;10.868;2024-03-02T11:37:58;5.90;;;3.87;;
16832;SDS011;8533;48.426;10.868;2024-03-02T11:40:24;6.30;;;4.10;;
16832;SDS011;8533;48.426;10.868;2024-03-02T11:42:50;6.50;;;4.23;;
16832;SDS011;8533;48.426;10.868;2024-03-02T11:45:22;7.20;;;4.13;;
16832;SDS011;8533;48.426;10.868;2024-03-02T11:47:53;6.90;;;4.40;;
16832;SDS011;8533;48.426;10.868;2024-03-02T11:50:41;8.80;;;5.20;;
16832;SDS011;8533;48.426;10.868;2024-03-02T11:53:07;7.10;;;4.57;;
16832;SDS011;8533;48.426;10.868;2024-03-02T11:55:37;11.73;;;4.93;;
16832;SDS011;8533;48.426;10.868;2024-03-02T11:58:04;8.23;;;5.23;;
16832;SDS011;8533;48.426;10.868;2024-03-02T12:00:30;11.00;;;5.97;;
16832;SDS011;8533;48.426;10.868;2024-03-02T12:03:05;11.00;;;5.77;;
16832;SDS011;8533;48.426;10.868;2024-03-02T12:05:34;11.53;;;5.73;;
16832;SDS011;8533;48.426;10.868;2024-03-02T12:08:01;7.27;;;5.60;;
16832;SDS011;8533;48.426;10.868;2024-03-02T12:10:28;10.33;;;5.20;;
16832;SDS011;8533;48.426;10.868;2024-03-02T12:12:55;9.07;;;5.87;;
16832;SDS011;8533;48.426;10.868;2024-03-02T12:15:25;13.97;;;5.97;;
16832;SDS011;8533;48.426;10.868;2024-03-02T12:17:55;10.47;;;5.70;;
16832;SDS011;8533;48.426;10.868;2024-03-02T12:20:20;7.13;;;4.87;;
16832;SDS011;8533;48.426;10.868;2024-03-02T12:22:46;7.87;;;5.47;;
16832;SDS011;8533;48.426;10.868;2024-03-02T12:25:12;12.13;;;5.37;;
16832;SDS011;8533;48.426;10.868;2024-03-02T12:27:38;10.27;;;5.70;;
16832;SDS011;8533;48.426;10.868;2024-03-02T12:30:05;12.63;;;6.43;;
16832;SDS011;8533;48.426;10.868;2024-03-02T12:32:33;11.47;;;6.07;;
16832;SDS011;8533;48.426;10.868;2024-03-02T12:34:58;11.80;;;6.73;;
16832;SDS011;8533;48.426;10.868;2024-03-02T12:37:24;12.67;;;7.87;;
16832;SDS011;8533;48.426;10.868;2024-03-02T12:39:49;12.20;;;7.43;;
16832;SDS011;8533;48.426;10.868;2024-03-02T12:42:14;15.33;;;8.40;;
16832;SDS011;8533;48.426;10.868;2024-03-02T12:44:39;14.47;;;8.23;;
16832;SDS011;8533;48.426;10.868;2024-03-02T12:47:05;13.97;;;8.07;;
16832;SDS011;8533;48.426;10.868;2024-03-02T12:49:30;14.03;;;7.80;;
16832;SDS011;8533;48.426;10.868;2024-03-02T12:51:57;15.67;;;9.17;;
16832;SDS011;8533;48.426;10.868;2024-03-02T12:54:22;13.50;;;8.27;;
16832;SDS011;8533;48.426;10.868;2024-03-02T12:56:49;15.27;;;8.77;;
16832;SDS011;8533;48.426;10.868;2024-03-02T12:59:19;15.00;;;7.63;;
16832;SDS011;8533;48.426;10.868;2024-03-02T13:01:50;15.23;;;8.20;;
16832;SDS011;8533;48.426;10.868;2024-03-02T13:04:17;15.13;;;8.73;;
16832;SDS011;8533;48.426;10.868;2024-03-02T13:06:42;15.67;;;8.10;;
16832;SDS011;8533;48.426;10.868;2024-03-02T13:09:07;15.50;;;7.73;;
16832;SDS011;8533;48.426;10.868;2024-03-02T13:11:39;14.83;;;8.03;;
16832;SDS011;8533;48.426;10.868;2024-03-02T13:14:05;15.03;;;8.03;;
16832;SDS011;8533;48.426;10.868;2024-03-02T13:16:30;15.03;;;8.27;;
16832;SDS011;8533;48.426;10.868;2024-03-02T13:18:55;13.77;;;7.30;;
16832;SDS011;8533;48.426;10.868;2024-03-02T13:21:21;13.07;;;6.87;;
16832;SDS011;8533;48.426;10.868;2024-03-02T13:23:46;15.77;;;8.77;;
16832;SDS011;8533;48.426;10.868;2024-03-02T13:26:11;14.83;;;7.87;;
16832;SDS011;8533;48.426;10.868;2024-03-02T13:28:37;13.83;;;7.70;;
16832;SDS011;8533;48.426;10.868;2024-03-02T13:31:03;16.03;;;9.63;;
16832;SDS011;8533;48.426;10.868;2024-03-02T13:33:28;13.80;;;8.13;;
16832;SDS011;8533;48.426;10.868;2024-03-02T13:35:55;13.37;;;7.73;;
16832;SDS011;8533;48.426;10.868;2024-03-02T13:38:20;16.20;;;8.30;;
16832;SDS011;8533;48.426;10.868;2024-03-02T13:40:49;17.17;;;7.87;;
16832;SDS011;8533;48.426;10.868;2024-03-02T13:43:17;14.37;;;7.87;;
16832;SDS011;8533;48.426;10.868;2024-03-02T13:45:44;15.63;;;8.97;;
16832;SDS011;8533;48.426;10.868;2024-03-02T13:48:09;20.93;;;11.10;;
16832;SDS011;8533;48.426;10.868;2024-03-02T13:50:34;16.33;;;9.33;;
16832;SDS011;8533;48.426;10.868;2024-03-02T13:53:00;15.40;;;8.20;;
16832;SDS011;8533;48.426;10.868;2024-03-02T13:55:25;14.63;;;7.60;;
16832;SDS011;8533;48.426;10.868;2024-03-02T13:57:50;15.20;;;7.73;;
16832;SDS011;8533;48.426;10.868;2024-03-02T14:00:16;13.90;;;7.97;;
16832;SDS011;8533;48.426;10.868;2024-03-02T14:02:42;14.53;;;7.60;;
16832;SDS011;8533;48.426;10.868;2024-03-02T14:05:08;15.80;;;8.73;;
16832;SDS011;8533;48.426;10.868;2024-03-02T14:07:38;17.80;;;9.73;;
16832;SDS011;8533;48.426;10.868;2024-03-02T14:10:04;19.50;;;9.20;;
16832;SDS011;8533;48.426;10.868;2024-03-02T14:12:29;18.27;;;8.17;;
16832;SDS011;8533;48.426;10.868;2024-03-02T14:14:55;19.00;;;9.80;;
16832;SDS011;8533;48.426;10.868;2024-03-02T14:17:23;19.93;;;9.63;;
16832;SDS011;8533;48.426;10.868;2024-03-02T14:19:51;19.70;;;9.53;;
16832;SDS011;8533;48.426;10.868;2024-03-02T14:22:18;17.50;;;9.67;;
16832;SDS011;8533;48.426;10.868;2024-03-02T14:24:44;18.67;;;9.60;;
16832;SDS011;8533;48.426;10.868;2024-03-02T14:27:09;18.77;;;9.43;;
16832;SDS011;8533;48.426;10.868;2024-03-02T14:29:34;18.23;;;9.03;;
16832;SDS011;8533;48.426;10.868;2024-03-02T14:32:02;17.67;;;9.27;;